sensor_id;sensor_type;location;lat;lon;timestamp;pressure;altitude;pressure_sealevel;temperature;humidity
68656;BME280;55638;51.122;13.606;2023-04-08T00:00:55;100474.69;;;4.04;54.46
68656;BME280;55638;51.122;13.606;2023-04-08T00:02:26;100473.84;;;4.04;54.37
68656;BME280;55638;51.122;13.606;2023-04-08T00:03:59;100475.56;;;4.05;54.38
68656;BME280;55638;51.122;13.606;2023-04-08T00:05:32;100470.13;;;4.06;54.42
68656;BME280;55638;51.122;13.606;2023-04-08T00:07:03;100476.34;;;4.07;54.37
68656;BME280;55638;51.122;13.606;2023-04-08T00:08:36;100467.47;;;4.06;54.54
68656;BME280;55638;51.122;13.606;2023-04-08T00:10:08;100464.72;;;4.08;54.61
68656;BME280;55638;51.122;13.606;2023-04-08T00:11:40;100468.25;;;4.08;54.67
68656;BME280;55638;51.122;13.606;2023-04-08T00:13:13;100469.13;;;4.09;54.59
68656;BME280;55638;51.122;13.606;2023-04-08T00:14:45;100462.84;;;4.10;54.60
68656;BME280;55638;51.122;13.606;2023-04-08T00:16:17;100462.84;;;4.10;54.72
68656;BME280;55638;51.122;13.606;2023-04-08T00:17:49;100469.06;;;4.10;54.79
68656;BME280;55638;51.122;13.606;2023-04-08T00:19:21;100475.16;;;4.12;54.81
68656;BME280;55638;51.122;13.606;2023-04-08T00:20:53;100469.81;;;4.12;54.63
68656;BME280;55638;51.122;13.606;2023-04-08T00:22:25;100474.28;;;4.12;54.86
68656;BME280;55638;51.122;13.606;2023-04-08T00:23:57;100465.34;;;4.13;54.72
68656;BME280;55638;51.122;13.606;2023-04-08T00:25:30;100464.41;;;4.14;54.94
68656;BME280;55638;51.122;13.606;2023-04-08T00:27:02;100460.78;;;4.15;54.82
68656;BME280;55638;51.122;13.606;2023-04-08T00:28:34;100467.00;;;4.16;54.84
68656;BME280;55638;51.122;13.606;2023-04-08T00:30:06;100470.50;;;4.16;54.94
68656;BME280;55638;51.122;13.606;2023-04-08T00:31:38;100466.06;;;4.17;54.91
68656;BME280;55638;51.122;13.606;2023-04-08T00:33:10;100462.44;;;4.18;54.93
68656;BME280;55638;51.122;13.606;2023-04-08T00:34:42;100460.63;;;4.18;54.90
68656;BME280;55638;51.122;13.606;2023-04-08T00:36:14;100463.31;;;4.18;55.05
68656;BME280;55638;51.122;13.606;2023-04-08T00:37:46;100467.69;;;4.19;55.00
68656;BME280;55638;51.122;13.606;2023-04-08T00:39:19;100459.69;;;4.19;54.96
68656;BME280;55638;51.122;13.606;2023-04-08T00:40:51;100469.44;;;4.20;55.22
68656;BME280;55638;51.122;13.606;2023-04-08T00:42:23;100465.81;;;4.21;55.08
68656;BME280;55638;51.122;13.606;2023-04-08T00:43:55;100467.53;;;4.22;55.13
68656;BME280;55638;51.122;13.606;2023-04-08T00:45:27;100468.38;;;4.23;55.34
68656;BME280;55638;51.122;13.606;2023-04-08T00:46:59;100468.38;;;4.23;55.28
68656;BME280;55638;51.122;13.606;2023-04-08T00:48:31;100475.47;;;4.24;55.40
68656;BME280;55638;51.122;13.606;2023-04-08T00:50:06;100471.00;;;4.24;55.40
68656;BME280;55638;51.122;13.606;2023-04-08T00:51:39;100469.13;;;4.26;55.18
68656;BME280;55638;51.122;13.606;2023-04-08T00:53:14;100476.16;;;4.27;55.78
68656;BME280;55638;51.122;13.606;2023-04-08T00:54:48;100473.50;;;4.27;55.32
68656;BME280;55638;51.122;13.606;2023-04-08T00:56:23;100472.53;;;4.28;55.43
68656;BME280;55638;51.122;13.606;2023-04-08T00:57:56;100472.53;;;4.28;55.41
68656;BME280;55638;51.122;13.606;2023-04-08T00:59:29;100468.06;;;4.29;55.53
68656;BME280;55638;51.122;13.606;2023-04-08T01:01:42;100467.38;;;4.25;57.27
68656;BME280;55638;51.122;13.606;2023-04-08T01:03:49;100470.81;;;4.27;56.83
68656;BME280;55638;51.122;13.606;2023-04-08T01:05:55;100473.50;;;4.27;56.73
68656;BME280;55638;51.122;13.606;2023-04-08T01:07:47;100461.88;;;4.28;56.65
68656;BME280;55638;51.122;13.606;2023-04-08T01:09:22;100463.53;;;4.31;56.01
68656;BME280;55638;51.122;13.606;2023-04-08T01:11:01;100458.19;;;4.31;56.24
68656;BME280;55638;51.122;13.606;2023-04-08T01:12:40;100461.72;;;4.31;56.20
68656;BME280;55638;51.122;13.606;2023-04-08T01:14:19;100458.09;;;4.32;56.23
68656;BME280;55638;51.122;13.606;2023-04-08T01:15:52;100457.06;;;4.35;55.49
68656;BME280;55638;51.122;13.606;2023-04-08T01:17:25;100457.06;;;4.35;55.64
68656;BME280;55638;51.122;13.606;2023-04-08T01:18:57;100457.94;;;4.35;55.79
68656;BME280;55638;51.122;13.606;2023-04-08T01:20:29;100460.59;;;4.35;55.64
68656;BME280;55638;51.122;13.606;2023-04-08T01:24:08;100457.94;;;4.35;56.76
68656;BME280;55638;51.122;13.606;2023-04-08T01:25:52;100452.53;;;4.37;56.80
68656;BME280;55638;51.122;13.606;2023-04-08T01:27:26;100452.38;;;4.40;55.96
68656;BME280;55638;51.122;13.606;2023-04-08T01:29:00;100450.53;;;4.41;56.07
68656;BME280;55638;51.122;13.606;2023-04-08T01:30:34;100455.88;;;4.41;55.90
68656;BME280;55638;51.122;13.606;2023-04-08T01:32:09;100455.78;;;4.42;56.25
68656;BME280;55638;51.122;13.606;2023-04-08T01:33:43;100459.34;;;4.43;55.88
68656;BME280;55638;51.122;13.606;2023-04-08T01:35:15;100454.00;;;4.43;56.07
68656;BME280;55638;51.122;13.606;2023-04-08T01:36:48;100454.00;;;4.43;56.25
68656;BME280;55638;51.122;13.606;2023-04-08T01:38:22;100452.19;;;4.43;56.23
68656;BME280;55638;51.122;13.606;2023-04-08T01:39:55;100445.06;;;4.44;56.20
68656;BME280;55638;51.122;13.606;2023-04-08T01:41:28;100451.25;;;4.44;55.95
68656;BME280;55638;51.122;13.606;2023-04-08T01:43:02;100453.84;;;4.46;56.16
68656;BME280;55638;51.122;13.606;2023-04-08T01:44:35;100444.03;;;4.46;56.16
68656;BME280;55638;51.122;13.606;2023-04-08T01:46:10;100455.56;;;4.47;56.32
68656;BME280;55638;51.122;13.606;2023-04-08T01:47:45;100456.41;;;4.47;56.32
68656;BME280;55638;51.122;13.606;2023-04-08T01:49:21;100455.47;;;4.48;56.22
68656;BME280;55638;51.122;13.606;2023-04-08T01:50:54;100453.75;;;4.47;56.27
68656;BME280;55638;51.122;13.606;2023-04-08T01:52:28;100456.41;;;4.47;56.30
68656;BME280;55638;51.122;13.606;2023-04-08T01:54:00;100458.13;;;4.48;56.18
68656;BME280;55638;51.122;13.606;2023-04-08T01:55:33;100459.00;;;4.49;56.61
68656;BME280;55638;51.122;13.606;2023-04-08T01:57:05;100455.41;;;4.50;56.46
68656;BME280;55638;51.122;13.606;2023-04-08T01:58:46;100458.13;;;4.48;57.17
68656;BME280;55638;51.122;13.606;2023-04-08T02:00:24;100458.94;;;4.50;57.03
68656;BME280;55638;51.122;13.606;2023-04-08T02:01:59;100453.59;;;4.50;56.58
68656;BME280;55638;51.122;13.606;2023-04-08T02:03:33;100459.78;;;4.51;56.36
68656;BME280;55638;51.122;13.606;2023-04-08T02:05:06;100450.91;;;4.50;56.38
68656;BME280;55638;51.122;13.606;2023-04-08T02:06:39;100467.78;;;4.51;56.48
68656;BME280;55638;51.122;13.606;2023-04-08T02:08:11;100460.63;;;4.51;56.51
68656;BME280;55638;51.122;13.606;2023-04-08T02:09:43;100460.63;;;4.51;56.58
68656;BME280;55638;51.122;13.606;2023-04-08T02:11:15;100454.44;;;4.51;56.44
68656;BME280;55638;51.122;13.606;2023-04-08T02:12:48;100454.44;;;4.51;56.61
68656;BME280;55638;51.122;13.606;2023-04-08T02:14:20;100455.41;;;4.50;56.57
68656;BME280;55638;51.122;13.606;2023-04-08T02:16:02;100467.88;;;4.49;57.29
68656;BME280;55638;51.122;13.606;2023-04-08T02:17:45;100462.56;;;4.49;57.30
68656;BME280;55638;51.122;13.606;2023-04-08T02:19:48;100465.28;;;4.48;57.79
68656;BME280;55638;51.122;13.606;2023-04-08T02:21:30;100461.59;;;4.50;57.44
68656;BME280;55638;51.122;13.606;2023-04-08T02:23:19;100465.22;;;4.49;57.55
68656;BME280;55638;51.122;13.606;2023-04-08T02:24:51;100465.06;;;4.52;56.69
68656;BME280;55638;51.122;13.606;2023-04-08T02:26:24;100463.41;;;4.50;57.11
68656;BME280;55638;51.122;13.606;2023-04-08T02:28:02;100466.84;;;4.52;57.16
68656;BME280;55638;51.122;13.606;2023-04-08T02:29:35;100462.44;;;4.51;56.97
68656;BME280;55638;51.122;13.606;2023-04-08T02:31:10;100466.84;;;4.52;57.34
68656;BME280;55638;51.122;13.606;2023-04-08T02:32:49;100461.50;;;4.52;56.82
68656;BME280;55638;51.122;13.606;2023-04-08T02:34:22;100466.84;;;4.52;56.99
68656;BME280;55638;51.122;13.606;2023-04-08T02:35:55;100469.50;;;4.52;56.87
68656;BME280;55638;51.122;13.606;2023-04-08T02:37:28;100464.16;;;4.52;56.86
68656;BME280;55638;51.122;13.606;2023-04-08T02:39:02;100465.06;;;4.52;57.12
68656;BME280;55638;51.122;13.606;2023-04-08T02:40:34;100465.91;;;4.53;56.97
68656;BME280;55638;51.122;13.606;2023-04-08T02:42:08;100466.78;;;4.53;57.01
68656;BME280;55638;51.122;13.606;2023-04-08T02:43:42;100468.47;;;4.54;56.89
68656;BME280;55638;51.122;13.606;2023-04-08T02:45:14;100463.16;;;4.54;57.04
68656;BME280;55638;51.122;13.606;2023-04-08T02:46:46;100468.41;;;4.56;56.87
68656;BME280;55638;51.122;13.606;2023-04-08T02:48:18;100465.81;;;4.54;57.16
68656;BME280;55638;51.122;13.606;2023-04-08T02:49:50;100466.66;;;4.55;56.97
68656;BME280;55638;51.122;13.606;2023-04-08T02:51:23;100472.00;;;4.55;57.15
68656;BME280;55638;51.122;13.606;2023-04-08T02:52:56;100478.25;;;4.55;57.27
68656;BME280;55638;51.122;13.606;2023-04-08T02:54:28;100476.44;;;4.56;57.17
68656;BME280;55638;51.122;13.606;2023-04-08T02:56:00;100476.44;;;4.56;57.36
68656;BME280;55638;51.122;13.606;2023-04-08T02:57:36;100483.47;;;4.57;57.36
68656;BME280;55638;51.122;13.606;2023-04-08T02:59:08;100485.19;;;4.58;57.39
68656;BME280;55638;51.122;13.606;2023-04-08T03:00:40;100482.53;;;4.58;57.35
68656;BME280;55638;51.122;13.606;2023-04-08T03:02:12;100484.34;;;4.57;57.38
68656;BME280;55638;51.122;13.606;2023-04-08T03:03:44;100483.47;;;4.57;57.33
68656;BME280;55638;51.122;13.606;2023-04-08T03:05:16;100481.75;;;4.56;57.57
68656;BME280;55638;51.122;13.606;2023-04-08T03:06:48;100479.94;;;4.56;57.54
68656;BME280;55638;51.122;13.606;2023-04-08T03:08:20;100482.63;;;4.56;57.51
68656;BME280;55638;51.122;13.606;2023-04-08T03:09:53;100485.19;;;4.58;57.62
68656;BME280;55638;51.122;13.606;2023-04-08T03:11:26;100479.84;;;4.58;57.62
68656;BME280;55638;51.122;13.606;2023-04-08T03:12:58;100481.66;;;4.57;57.56
68656;BME280;55638;51.122;13.606;2023-04-08T03:14:29;100484.28;;;4.59;57.30
68656;BME280;55638;51.122;13.606;2023-04-08T03:16:01;100478.03;;;4.58;57.47
68656;BME280;55638;51.122;13.606;2023-04-08T03:17:33;100477.97;;;4.60;57.62
68656;BME280;55638;51.122;13.606;2023-04-08T03:19:05;100474.34;;;4.61;57.38
68656;BME280;55638;51.122;13.606;2023-04-08T03:20:37;100474.44;;;4.59;57.44
68656;BME280;55638;51.122;13.606;2023-04-08T03:22:09;100480.66;;;4.60;57.62
68656;BME280;55638;51.122;13.606;2023-04-08T03:23:40;100472.53;;;4.62;57.68
68656;BME280;55638;51.122;13.606;2023-04-08T03:25:12;100474.34;;;4.61;57.80
68656;BME280;55638;51.122;13.606;2023-04-08T03:26:44;100478.78;;;4.62;57.87
68656;BME280;55638;51.122;13.606;2023-04-08T03:28:16;100477.88;;;4.62;57.76
68656;BME280;55638;51.122;13.606;2023-04-08T03:29:48;100477.81;;;4.63;57.79
68656;BME280;55638;51.122;13.606;2023-04-08T03:31:20;100485.81;;;4.63;57.69
68656;BME280;55638;51.122;13.606;2023-04-08T03:32:52;100484.00;;;4.64;57.75
68656;BME280;55638;51.122;13.606;2023-04-08T03:34:24;100485.72;;;4.65;57.93
68656;BME280;55638;51.122;13.606;2023-04-08T03:35:56;100481.34;;;4.64;58.06
68656;BME280;55638;51.122;13.606;2023-04-08T03:37:28;100483.94;;;4.65;57.81
68656;BME280;55638;51.122;13.606;2023-04-08T03:39:00;100489.19;;;4.67;57.75
68656;BME280;55638;51.122;13.606;2023-04-08T03:40:34;100483.84;;;4.67;57.88
68656;BME280;55638;51.122;13.606;2023-04-08T03:42:06;100484.72;;;4.67;57.87
68656;BME280;55638;51.122;13.606;2023-04-08T03:43:37;100484.72;;;4.67;57.92
68656;BME280;55638;51.122;13.606;2023-04-08T03:45:09;100474.03;;;4.67;57.85
68656;BME280;55638;51.122;13.606;2023-04-08T03:46:41;100479.38;;;4.67;57.99
68656;BME280;55638;51.122;13.606;2023-04-08T03:48:13;100483.75;;;4.68;58.10
68656;BME280;55638;51.122;13.606;2023-04-08T03:49:45;100486.41;;;4.68;58.04
68656;BME280;55638;51.122;13.606;2023-04-08T03:51:17;100485.50;;;4.69;57.93
68656;BME280;55638;51.122;13.606;2023-04-08T03:52:49;100482.81;;;4.69;57.98
68656;BME280;55638;51.122;13.606;2023-04-08T03:54:21;100482.81;;;4.69;57.98
68656;BME280;55638;51.122;13.606;2023-04-08T03:55:53;100484.53;;;4.70;57.99
68656;BME280;55638;51.122;13.606;2023-04-08T03:57:24;100491.59;;;4.71;57.84
68656;BME280;55638;51.122;13.606;2023-04-08T03:58:56;100488.91;;;4.71;57.74
68656;BME280;55638;51.122;13.606;2023-04-08T04:00:28;100488.00;;;4.72;57.94
68656;BME280;55638;51.122;13.606;2023-04-08T04:02:00;100487.16;;;4.72;57.97
68656;BME280;55638;51.122;13.606;2023-04-08T04:03:32;100491.59;;;4.71;57.81
68656;BME280;55638;51.122;13.606;2023-04-08T04:05:05;100489.81;;;4.72;57.88
68656;BME280;55638;51.122;13.606;2023-04-08T04:06:37;100489.81;;;4.72;58.03
68656;BME280;55638;51.122;13.606;2023-04-08T04:08:09;100492.56;;;4.70;58.07
68656;BME280;55638;51.122;13.606;2023-04-08T04:09:41;100489.03;;;4.70;57.94
68656;BME280;55638;51.122;13.606;2023-04-08T04:11:13;100492.56;;;4.70;58.01
68656;BME280;55638;51.122;13.606;2023-04-08T04:12:45;100487.22;;;4.70;58.00
68656;BME280;55638;51.122;13.606;2023-04-08T04:14:18;100490.75;;;4.71;57.86
68656;BME280;55638;51.122;13.606;2023-04-08T04:15:49;100493.41;;;4.71;57.91
68656;BME280;55638;51.122;13.606;2023-04-08T04:17:21;100489.88;;;4.70;57.95
68656;BME280;55638;51.122;13.606;2023-04-08T04:18:53;100488.06;;;4.71;58.11
68656;BME280;55638;51.122;13.606;2023-04-08T04:20:25;100492.56;;;4.70;57.89
68656;BME280;55638;51.122;13.606;2023-04-08T04:21:59;100491.69;;;4.70;57.98
68656;BME280;55638;51.122;13.606;2023-04-08T04:23:31;100494.38;;;4.70;58.09
68656;BME280;55638;51.122;13.606;2023-04-08T04:25:04;100491.75;;;4.68;58.20
68656;BME280;55638;51.122;13.606;2023-04-08T04:26:36;100503.34;;;4.69;58.34
68656;BME280;55638;51.122;13.606;2023-04-08T04:28:08;100504.19;;;4.69;58.44
68656;BME280;55638;51.122;13.606;2023-04-08T04:29:40;100500.66;;;4.69;58.38
68656;BME280;55638;51.122;13.606;2023-04-08T04:31:22;100497.19;;;4.67;59.12
68656;BME280;55638;51.122;13.606;2023-04-08T04:32:57;100505.13;;;4.68;58.55
68656;BME280;55638;51.122;13.606;2023-04-08T04:34:29;100505.13;;;4.68;58.41
68656;BME280;55638;51.122;13.606;2023-04-08T04:36:00;100501.59;;;4.68;58.34
68656;BME280;55638;51.122;13.606;2023-04-08T04:37:32;100502.44;;;4.68;58.38
68656;BME280;55638;51.122;13.606;2023-04-08T04:39:04;100502.44;;;4.68;58.66
68656;BME280;55638;51.122;13.606;2023-04-08T04:40:37;100503.34;;;4.69;58.71
68656;BME280;55638;51.122;13.606;2023-04-08T04:42:09;100506.91;;;4.68;58.39
68656;BME280;55638;51.122;13.606;2023-04-08T04:43:42;100504.19;;;4.69;58.53
68656;BME280;55638;51.122;13.606;2023-04-08T04:45:14;100512.19;;;4.69;58.74
68656;BME280;55638;51.122;13.606;2023-04-08T04:46:46;100508.75;;;4.67;58.69
68656;BME280;55638;51.122;13.606;2023-04-08T04:48:18;100518.47;;;4.68;58.79
68656;BME280;55638;51.122;13.606;2023-04-08T04:49:50;100507.72;;;4.70;58.89
68656;BME280;55638;51.122;13.606;2023-04-08T04:51:22;100513.06;;;4.70;58.74
68656;BME280;55638;51.122;13.606;2023-04-08T04:52:53;100513.06;;;4.70;58.70
68656;BME280;55638;51.122;13.606;2023-04-08T04:54:25;100512.97;;;4.71;58.63
68656;BME280;55638;51.122;13.606;2023-04-08T04:55:57;100522.72;;;4.72;58.67
68656;BME280;55638;51.122;13.606;2023-04-08T04:57:31;100519.19;;;4.72;58.68
68656;BME280;55638;51.122;13.606;2023-04-08T04:59:03;100520.06;;;4.72;58.92
68656;BME280;55638;51.122;13.606;2023-04-08T05:00:36;100527.19;;;4.72;58.97
68656;BME280;55638;51.122;13.606;2023-04-08T05:02:08;100528.06;;;4.72;59.00
68656;BME280;55638;51.122;13.606;2023-04-08T05:03:39;100525.38;;;4.72;58.93
68656;BME280;55638;51.122;13.606;2023-04-08T05:05:11;100528.91;;;4.73;58.93
68656;BME280;55638;51.122;13.606;2023-04-08T05:06:43;100528.06;;;4.72;58.78
68656;BME280;55638;51.122;13.606;2023-04-08T05:08:15;100528.91;;;4.73;58.79
68656;BME280;55638;51.122;13.606;2023-04-08T05:09:47;100529.78;;;4.73;58.65
68656;BME280;55638;51.122;13.606;2023-04-08T05:11:20;100537.69;;;4.75;58.83
68656;BME280;55638;51.122;13.606;2023-04-08T05:12:52;100525.22;;;4.75;58.90
68656;BME280;55638;51.122;13.606;2023-04-08T05:14:24;100543.03;;;4.75;58.81
68656;BME280;55638;51.122;13.606;2023-04-08T05:15:56;100538.56;;;4.75;58.74
68656;BME280;55638;51.122;13.606;2023-04-08T05:17:28;100535.03;;;4.75;58.95
68656;BME280;55638;51.122;13.606;2023-04-08T05:19:00;100537.69;;;4.75;59.00
68656;BME280;55638;51.122;13.606;2023-04-08T05:20:32;100543.03;;;4.75;59.10
68656;BME280;55638;51.122;13.606;2023-04-08T05:22:04;100539.44;;;4.76;59.03
68656;BME280;55638;51.122;13.606;2023-04-08T05:23:36;100546.50;;;4.77;59.02
68656;BME280;55638;51.122;13.606;2023-04-08T05:25:08;100542.97;;;4.76;58.87
68656;BME280;55638;51.122;13.606;2023-04-08T05:26:40;100534.00;;;4.77;58.93
68656;BME280;55638;51.122;13.606;2023-04-08T05:28:12;100536.59;;;4.79;58.92
68656;BME280;55638;51.122;13.606;2023-04-08T05:29:44;100540.13;;;4.79;59.14
68656;BME280;55638;51.122;13.606;2023-04-08T05:31:16;100537.47;;;4.79;59.10
68656;BME280;55638;51.122;13.606;2023-04-08T05:32:48;100536.59;;;4.79;59.52
68656;BME280;55638;51.122;13.606;2023-04-08T05:34:20;100540.94;;;4.81;59.55
68656;BME280;55638;51.122;13.606;2023-04-08T05:35:54;100542.63;;;4.82;59.42
68656;BME280;55638;51.122;13.606;2023-04-08T05:37:26;100544.34;;;4.83;59.19
68656;BME280;55638;51.122;13.606;2023-04-08T05:38:58;100540.66;;;4.86;59.20
68656;BME280;55638;51.122;13.606;2023-04-08T05:40:31;100544.19;;;4.87;59.14
68656;BME280;55638;51.122;13.606;2023-04-08T05:42:03;100548.56;;;4.88;59.29
68656;BME280;55638;51.122;13.606;2023-04-08T05:43:35;100542.31;;;4.89;59.38
68656;BME280;55638;51.122;13.606;2023-04-08T05:45:08;100546.53;;;4.93;59.41
68656;BME280;55638;51.122;13.606;2023-04-08T05:46:40;100545.56;;;4.94;59.58
68656;BME280;55638;51.122;13.606;2023-04-08T05:48:12;100543.69;;;4.96;59.51
68656;BME280;55638;51.122;13.606;2023-04-08T05:49:44;100548.94;;;4.97;59.27
68656;BME280;55638;51.122;13.606;2023-04-08T05:51:16;100549.72;;;4.99;59.54
68656;BME280;55638;51.122;13.606;2023-04-08T05:52:48;100548.72;;;5.02;59.48
68656;BME280;55638;51.122;13.606;2023-04-08T05:54:20;100550.41;;;5.03;59.39
68656;BME280;55638;51.122;13.606;2023-04-08T05:55:52;100549.47;;;5.04;59.34
68656;BME280;55638;51.122;13.606;2023-04-08T05:57:24;100556.47;;;5.06;59.48
68656;BME280;55638;51.122;13.606;2023-04-08T05:58:56;100550.19;;;5.07;59.62
68656;BME280;55638;51.122;13.606;2023-04-08T06:00:27;100560.78;;;5.09;59.40
68656;BME280;55638;51.122;13.606;2023-04-08T06:01:59;100553.63;;;5.10;59.52
68656;BME280;55638;51.122;13.606;2023-04-08T06:03:31;100558.91;;;5.11;59.59
68656;BME280;55638;51.122;13.606;2023-04-08T06:05:04;100567.66;;;5.13;59.60
68656;BME280;55638;51.122;13.606;2023-04-08T06:06:37;100576.47;;;5.15;59.56
68656;BME280;55638;51.122;13.606;2023-04-08T06:08:09;100566.66;;;5.16;59.61
68656;BME280;55638;51.122;13.606;2023-04-08T06:09:41;100566.59;;;5.17;59.56
68656;BME280;55638;51.122;13.606;2023-04-08T06:11:15;100570.97;;;5.18;59.78
68656;BME280;55638;51.122;13.606;2023-04-08T06:12:47;100569.06;;;5.20;59.67
68656;BME280;55638;51.122;13.606;2023-04-08T06:14:19;100570.81;;;5.21;59.54
68656;BME280;55638;51.122;13.606;2023-04-08T06:15:51;100575.19;;;5.22;59.55
68656;BME280;55638;51.122;13.606;2023-04-08T06:17:23;100578.72;;;5.23;59.77
68656;BME280;55638;51.122;13.606;2023-04-08T06:18:55;100585.72;;;5.25;59.64
68656;BME280;55638;51.122;13.606;2023-04-08T06:20:27;100585.69;;;5.27;59.76
68656;BME280;55638;51.122;13.606;2023-04-08T06:21:59;100583.88;;;5.27;59.78
68656;BME280;55638;51.122;13.606;2023-04-08T06:23:31;100581.09;;;5.29;59.74
68656;BME280;55638;51.122;13.606;2023-04-08T06:25:03;100576.53;;;5.31;60.10
68656;BME280;55638;51.122;13.606;2023-04-08T06:26:35;100579.03;;;5.34;60.18
68656;BME280;55638;51.122;13.606;2023-04-08T06:28:07;100570.00;;;5.37;60.28
68656;BME280;55638;51.122;13.606;2023-04-08T06:29:39;100576.88;;;5.41;60.62
68656;BME280;55638;51.122;13.606;2023-04-08T06:31:13;100574.81;;;5.46;60.26
68656;BME280;55638;51.122;13.606;2023-04-08T06:32:45;100575.47;;;5.49;60.25
68656;BME280;55638;51.122;13.606;2023-04-08T06:34:20;100581.56;;;5.53;60.28
68656;BME280;55638;51.122;13.606;2023-04-08T06:36:03;100585.78;;;5.57;60.57
68656;BME280;55638;51.122;13.606;2023-04-08T06:37:35;100591.69;;;5.62;59.93
68656;BME280;55638;51.122;13.606;2023-04-08T06:39:09;100585.25;;;5.66;60.07
68656;BME280;55638;51.122;13.606;2023-04-08T06:40:41;100590.50;;;5.68;59.88
68656;BME280;55638;51.122;13.606;2023-04-08T06:42:13;100600.97;;;5.72;59.85
68656;BME280;55638;51.122;13.606;2023-04-08T06:44:04;100604.38;;;5.74;59.86
68656;BME280;55638;51.122;13.606;2023-04-08T06:45:35;100603.25;;;5.79;60.08
68656;BME280;55638;51.122;13.606;2023-04-08T06:47:07;100605.00;;;5.80;60.17
68656;BME280;55638;51.122;13.606;2023-04-08T06:48:39;100600.34;;;5.83;60.15
68656;BME280;55638;51.122;13.606;2023-04-08T06:50:11;100604.66;;;5.86;60.18
68656;BME280;55638;51.122;13.606;2023-04-08T06:51:43;100601.81;;;5.89;60.28
68656;BME280;55638;51.122;13.606;2023-04-08T06:53:15;100601.53;;;5.93;60.13
68656;BME280;55638;51.122;13.606;2023-04-08T06:54:47;100602.22;;;5.97;60.19
68656;BME280;55638;51.122;13.606;2023-04-08T06:56:19;100601.06;;;6.01;60.26
68656;BME280;55638;51.122;13.606;2023-04-08T06:57:53;100605.31;;;6.05;60.27
68656;BME280;55638;51.122;13.606;2023-04-08T06:59:25;100606.00;;;6.09;60.37
68656;BME280;55638;51.122;13.606;2023-04-08T07:00:59;100614.59;;;6.14;60.29
68656;BME280;55638;51.122;13.606;2023-04-08T07:02:31;100605.53;;;6.16;60.08
68656;BME280;55638;51.122;13.606;2023-04-08T07:04:03;100618.56;;;6.22;60.25
68656;BME280;55638;51.122;13.606;2023-04-08T07:05:35;100611.31;;;6.25;60.34
68656;BME280;55638;51.122;13.606;2023-04-08T07:07:07;100614.69;;;6.28;60.10
68656;BME280;55638;51.122;13.606;2023-04-08T07:08:40;100627.78;;;6.33;60.03
68656;BME280;55638;51.122;13.606;2023-04-08T07:10:12;100626.66;;;6.37;59.97
68656;BME280;55638;51.122;13.606;2023-04-08T07:11:44;100628.22;;;6.41;59.91
68656;BME280;55638;51.122;13.606;2023-04-08T07:13:16;100624.56;;;6.42;60.06
68656;BME280;55638;51.122;13.606;2023-04-08T07:14:48;100626.09;;;6.46;60.02
68656;BME280;55638;51.122;13.606;2023-04-08T07:16:20;100625.94;;;6.49;60.01
68656;BME280;55638;51.122;13.606;2023-04-08T07:17:52;100625.75;;;6.52;60.00
68656;BME280;55638;51.122;13.606;2023-04-08T07:19:27;100626.34;;;6.57;59.83
68656;BME280;55638;51.122;13.606;2023-04-08T07:20:59;100634.19;;;6.60;59.74
68656;BME280;55638;51.122;13.606;2023-04-08T07:22:31;100637.63;;;6.62;59.81
68656;BME280;55638;51.122;13.606;2023-04-08T07:24:03;100638.31;;;6.66;59.68
68656;BME280;55638;51.122;13.606;2023-04-08T07:25:35;100637.38;;;6.67;59.66
68656;BME280;55638;51.122;13.606;2023-04-08T07:27:07;100638.03;;;6.70;59.68
68656;BME280;55638;51.122;13.606;2023-04-08T07:28:39;100635.25;;;6.72;59.69
68656;BME280;55638;51.122;13.606;2023-04-08T07:30:11;100640.53;;;6.74;59.74
68656;BME280;55638;51.122;13.606;2023-04-08T07:31:43;100643.97;;;6.76;59.79
68656;BME280;55638;51.122;13.606;2023-04-08T07:33:15;100647.44;;;6.78;59.76
68656;BME280;55638;51.122;13.606;2023-04-08T07:34:47;100634.81;;;6.80;59.76
68656;BME280;55638;51.122;13.606;2023-04-08T07:36:19;100649.81;;;6.82;59.75
68656;BME280;55638;51.122;13.606;2023-04-08T07:37:51;100648.81;;;6.85;59.55
68656;BME280;55638;51.122;13.606;2023-04-08T07:39:23;100646.06;;;6.86;59.45
68656;BME280;55638;51.122;13.606;2023-04-08T07:40:55;100655.69;;;6.89;59.30
68656;BME280;55638;51.122;13.606;2023-04-08T07:42:27;100645.88;;;6.89;59.23
68656;BME280;55638;51.122;13.606;2023-04-08T07:43:59;100652.94;;;6.90;59.24
68656;BME280;55638;51.122;13.606;2023-04-08T07:45:31;100661.84;;;6.91;59.35
68656;BME280;55638;51.122;13.606;2023-04-08T07:47:03;100658.13;;;6.93;58.90
68656;BME280;55638;51.122;13.606;2023-04-08T07:48:35;100666.16;;;6.93;58.91
68656;BME280;55638;51.122;13.606;2023-04-08T07:50:07;100662.63;;;6.93;59.04
68656;BME280;55638;51.122;13.606;2023-04-08T07:51:39;100667.97;;;6.93;59.25
68656;BME280;55638;51.122;13.606;2023-04-08T07:53:11;100676.88;;;6.93;59.12
68656;BME280;55638;51.122;13.606;2023-04-08T07:54:43;100672.38;;;6.94;59.06
68656;BME280;55638;51.122;13.606;2023-04-08T07:56:15;100674.09;;;6.95;59.03
68656;BME280;55638;51.122;13.606;2023-04-08T07:57:49;100675.06;;;6.94;59.06
68656;BME280;55638;51.122;13.606;2023-04-08T07:59:21;100676.78;;;6.95;59.03
68656;BME280;55638;51.122;13.606;2023-04-08T08:00:53;100679.19;;;7.00;59.51
68656;BME280;55638;51.122;13.606;2023-04-08T08:02:25;100676.41;;;7.01;59.93
68656;BME280;55638;51.122;13.606;2023-04-08T08:03:57;100677.84;;;7.07;60.06
68656;BME280;55638;51.122;13.606;2023-04-08T08:05:29;100680.16;;;7.13;60.12
68656;BME280;55638;51.122;13.606;2023-04-08T08:07:01;100676.22;;;7.19;59.78
68656;BME280;55638;51.122;13.606;2023-04-08T08:08:33;100682.84;;;7.27;59.92
68656;BME280;55638;51.122;13.606;2023-04-08T08:10:07;100684.09;;;7.36;60.01